Tiempo atmosférico en la estación meteorológica de Lanzarote Aeropuerto, Las Palmas (14 m.)



Fecha
DESCASC
Temp. máxima en grados centígrados (hora)
DESCASC
Temp. mínima en grados centígrados (hora)
DESCASC
Temp. media en grados centígrados
DESCASC
Racha de viento máxima en m/sg (hora)
DESCASC
Velocidad máxima media en intervalos de 10 minutos(hora)
DESCASC
Precipitaciones diarias en mm
DESCASC
Precipitaciones de 00:00 a 06:00 en mm
DESCASC
Precipitaciones de 06:00 a 12:00 en mm
DESCASC
Precipitaciones de 12:00 a 18:00 en mm
DESCASC
Precipitaciones de 18:00 a 24:00 en mm
DESCASC
11-12-2019 21.5 (13:50) 15.6 (04:30) 18.6 12.78 (17:40) 8.61 (17:40) 0 0 0 0 0
10-12-2019 23.3 (13:50) 14.8 (05:50) 19 16.39 (15:40) 9.17 (17:20) 0 0 0 0 0
09-12-2019 22.6 (14:10) 15.8 (04:00) 19.2 12.5 (11:10) 8.33 (10:40) 0 0 0 0 0
08-12-2019 22.6 (12:40) 14.4 (00:00) 18.5 12.78 (12:00) 9.17 (12:20) 0 0 0 0 0
07-12-2019 21.9 (15:10) 14.4 (00:00) 18.1 13.33 (17:30) 8.33 (17:20) 0 0 0 0 0
06-12-2019 21.1 (13:20) 14.1 (00:00) 17.6 16.11 (16:40) 10.56 (14:40) 5.1 2.6 0.2 2.3 0
05-12-2019 20.5 (12:50) 14.7 (00:00) 17.6 17.5 (02:10) 12.5 (02:40) 5.4 1.7 0.4 2 1.3
04-12-2019 22.6 (12:30) 15.9 (00:00) 19.3 12.5 (17:20) 8.06 (17:20) 2.3 0 0 0 2.3
03-12-2019 22.7 (13:20) 16.3 (00:00) 19.5 16.39 (15:30) 10.56 (12:00) 0 0 0 0 0
02-12-2019 22.5 (14:10) 16.7 (00:00) 19.6 13.89 (12:40) 8.89 (14:10) 0.3 0 0 0.2 0.1
01-12-2019 24.2 (13:10) 15.3 (00:00) 19.8 15 (14:30) 9.17 (14:30) 0 0 0 0 0
30-11-2019 28.3 (13:30) 17.2 (00:00) 22.8 10.83 (17:10) 7.22 (16:00) 0 0 0 0 0
29-11-2019 26.6 (12:40) 18.4 (00:00) 22.5 8.33 (01:50) 5.56 (09:40) 0 0 0 0 0
28-11-2019 25.7 (13:50) 15.3 (00:00) 20.5 9.17 (16:30) 6.67 (16:30) 0 0 0 0 0
27-11-2019 25.1 (13:50) 15.1 (00:00) 20.1 9.72 (13:50) 7.22 (17:50) 0 0 0 0 0
26-11-2019 27.1 (13:50) 15.1 (00:00) 21.1 12.5 (23:00) 7.78 (14:40) 0.2 0.2 0 0 0
25-11-2019 23.5 (13:30) 15.7 (00:00) 19.6 11.39 (12:00) 7.22 (12:40) 0 0 0 0 0
24-11-2019 24 (13:10) 16.9 (00:00) 20.4 13.89 (11:00) 10 (10:30) 0 0 0 0 0
23-11-2019 24.8 (11:40) 18.9 (00:00) 21.8 15.28 (13:50) 10.28 (14:00) 0.1 0 0 0.1 0
22-11-2019 24.8 (15:00) 18.7 (00:00) 21.8 14.44 (13:00) 5.83 (13:30) 0.2 0.2 0 0 0
21-11-2019 24.1 (13:40) 15.9 (00:00) 20 12.5 (14:30) 8.33 (14:10) 0.1 0 0.1 0 0
20-11-2019 24.6 (13:50) 13.7 (00:00) 19.2 10.83 (16:50) 7.78 (12:30) 3.3 0 0 0 3.3
19-11-2019 23.3 (13:40) 14.5 (00:00) 18.9 13.33 (13:40) 8.89 (16:30) 0.5 0 0.5 0 0
18-11-2019 22.1 (15:50) 14 (00:00) 18.1 13.33 (18:30) 6.39 (17:00) 0 0 0 0 0
17-11-2019 21.4 (13:10) 14.8 (00:00) 18.1 12.78 (11:10) 8.89 (12:30) 0 0 0 0 0
16-11-2019 22.6 (13:50) 16.1 (00:00) 19.4 17.5 (12:30) 12.5 (13:30) 0 0 0 0 0
15-11-2019 23 (12:40) 16.4 (00:00) 19.7 16.94 (14:50) 12.22 (14:50) 0 0 0 0 0

Gráficas

Temp. máximas Temp. mínimas Temp. medias Precipitaciones Rachas de viento máximas Velocidades máximas media en intervalos de 10 minutos

Datos horarios

Fecha y hora oficial Temperatura (ºC) Velocidad del viento (km/h) Dirección del viento Racha (km/h) Dirección de racha Precipitación (mm) Presión (hPa) Tendencia (hPa) Humedad (%)
2019-12-14 23:00:00 15.7 4 Norte 13 Sudeste 0 1018.5 0.3 87
2019-12-14 22:00:00 16.6 4 Nordeste 18 Noroeste 0 1018.2 0.3 83
2019-12-14 21:00:00 17.1 5 Este 13 Sudeste 0 1018.3 1 82
2019-12-14 20:00:00 17.5 3 Este 13 Norte 0 1018.2 1 80
2019-12-14 19:00:00 18.5 4 Norte 37 Noroeste 0 1017.9 0.7 75
2019-12-14 18:00:00 19.2 17 Norte 26 Norte 0 1017.3 0 72
2019-12-14 17:00:00 20 8 Este 13 Sudeste 0 1017.2 -0.4 73
2019-12-14 16:00:00 20.4 8 Sudeste 15 Sudeste 0 1017.2 -1.1 73
2019-12-14 15:00:00 21.2 10 Sur 17 Sur 0 1017.3 -1.9 68
2019-12-14 14:00:00 21.3 10 Sudeste 17 Sur 0 1017.6 -1.9 68
2019-12-14 13:00:00 21.4 12 Sudeste 18 Sudeste 0 1018.3 -1.6 68
2019-12-14 12:00:00 21.9 10 Este 28 Norte 0 1019.2 -0.3 66
2019-12-14 11:00:00 21.8 15 Norte 28 Norte 0 1019.5 0.3 58
2019-12-14 10:00:00 20.4 4 Norte 11 Noroeste 0 1019.9 0.9 69
2019-12-14 09:00:00 17.6 7 Noroeste 28 Noroeste 0 1019.5 0.8 81
2019-12-14 08:00:00 16.3 10 Norte 18 Noroeste 0 1019.2 0.7 85
2019-12-14 07:00:00 16.6 6 Norte 11 Norte 0 1019 0.2 85
2019-12-14 06:00:00 17.3 5 Nordeste 11 Nordeste 0 1018.7 -0.4 85
2019-12-14 05:00:00 16.5 9 Norte 15 Norte 0 1018.5 -1.4 86
2019-12-14 04:00:00 16 12 Norte 18 Nordeste 0 1018.8 -1.5 85
2019-12-14 03:00:00 17.6 13 Nordeste 21 Norte 0 1019.1 -1.5 82
2019-12-14 02:00:00 17.1 13 Nordeste 28 Nordeste 0 1019.9 -1.1 80
2019-12-14 01:00:00 17.8 15 Nordeste 24 Nordeste 0 1020.3 -0.9 78
2019-12-14 00:00:00 18.4 18 Nordeste 33 Nordeste 0 1020.6 -0.6 73
2019-12-13 23:00:00 18 15 Nordeste 30 Nordeste 0 1021 0 76
2019-12-13 22:00:00 17.9 18 Nordeste 28 Nordeste 0 1021.2 0.5 74
2019-12-13 21:00:00 18.1 18 Nordeste 33 Norte 0 1021.2 0.8 72
2019-12-13 20:00:00 18.1 18 Nordeste 35 Norte 0 1021 0.9 71
2019-12-13 19:00:00 18 14 Norte 35 Norte 0 1020.7 0.5 71
2019-12-13 18:00:00 19 27 Norte 48 Norte 0 1020.4 -0.2 68
2019-12-13 17:00:00 20.5 30 Norte 54 Norte 0 1020.1 -1.2 59
2019-12-13 16:00:00 21.4 36 Norte 48 Norte 0 1020.2 -2.4 56
2019-12-13 15:00:00 22 33 Norte 46 Nordeste 0 1020.6 -3 52
2019-12-13 14:00:00 22.2 30 Nordeste 46 Nordeste 0 1021.3 -3 53
2019-12-13 13:00:00 21.9 29 Nordeste 52 Nordeste 0 1022.6 -1.8 53
2019-12-13 12:00:00 20.5 26 Nordeste 45 Nordeste 0 1023.6 -0.4 56
2019-12-13 11:00:00 19.8 29 Norte 46 Nordeste 0 1024.3 0.5 60
2019-12-13 10:00:00 19.1 32 Nordeste 50 Norte 0 1024.4 0.7 59
2019-12-13 09:00:00 18.3 27 Norte 41 Norte 0 1024 0.5 64
2019-12-13 08:00:00 17.4 22 Norte 39 Norte 0 1023.8 0.4 64
2019-12-13 07:00:00 17.2 25 Norte 42 Norte 0 1023.7 0.2 64
2019-12-13 06:00:00 17 20 Norte 41 Nordeste 0 1023.5 0.1 66
2019-12-13 05:00:00 16.9 24 Norte 41 Norte 0 1023.4 -0.4 66
2019-12-13 04:00:00 17.1 31 Norte 48 Norte 0 1023.5 -1 65
2019-12-13 03:00:00 17.2 31 Norte 42 Nordeste 0 1023.4 -1.7 67
2019-12-13 02:00:00 16.9 35 Norte 48 Norte 0 1023.8 -1.2 65
2019-12-13 01:00:00 17 32 Norte 48 Nordeste 0 1024.5 -0.3 64
2019-12-13 00:00:00 17.2 32 Norte 52 Norte 0 1025.1 0.2 62
2019-12-12 23:00:00 17.4 33 Norte 58 Norte 0 1025 0.9 65
2019-12-12 22:00:00 17.1 33 Nordeste 52 Norte 0 1024.8 0.9 66
2019-12-12 21:00:00 17.3 30 Nordeste 50 Norte 0 1024.9 1.1 64
2019-12-12 20:00:00 17.8 28 Nordeste 50 Norte 0 1024.1 0.5 63
2019-12-12 19:00:00 18 36 Norte 52 Norte 0 1023.9 0.4 63
2019-12-12 18:00:00 18.8 31 Norte 50 Nordeste 0 1023.8 0.4 62
2019-12-12 17:00:00 19.9 30 Norte 52 Norte 0 1023.6 -0.1 60
2019-12-12 16:00:00 20.2 35 Norte 46 Norte 0 1023.5 -1 63
2019-12-12 15:00:00 21 37 Norte 48 Norte 0 1023.4 -1.7 60
2019-12-12 14:00:00 21.4 32 Nordeste 48 Nordeste 0 1023.7 -1.8 58
2019-12-12 13:00:00 21.9 33 Nordeste 52 Nordeste 0 1024.5 -0.8 54
2019-12-12 12:00:00 21.2 37 Nordeste 54 Norte 0 1025.1 0.5 61
2019-12-12 11:00:00 20.7 38 Nordeste 54 Nordeste 0 1025.5 1.5 62
2019-12-12 10:00:00 19.9 29 Nordeste 48 Nordeste 0 1025.3 2.1 69
2019-12-12 09:00:00 18.9 31 Norte 45 Norte 0 1024.6 1.4 74
2019-12-12 08:00:00 17.6 33 Norte 50 Norte 0 1024 0.5 77
2019-12-12 07:00:00 17.5 35 Norte 50 Nordeste 0 1023.2 -0.5 74
2019-12-12 06:00:00 17.3 33 Norte 48 Nordeste 0 1023.2 -0.4 74
2019-12-12 05:00:00 17.2 27 Norte 41 Norte 0 1023.5 -0.2 75
2019-12-12 04:00:00 17.2 23 Norte 45 Norte 0 1023.7 -0.7 75
2019-12-12 03:00:00 17.2 28 Norte 45 Norte 0 1023.6 -1.2 75
2019-12-12 02:00:00 17.2 31 Norte 42 Norte 0 1023.7 -1.3 75
2019-12-12 01:00:00 17.3 23 Norte 33 Nordeste 0 1024.4 -0.2 76
2019-12-12 00:00:00 17.4 22 Norte 39 Norte 0 1024.8 0.4 74
2019-12-11 23:00:00 17.2 22 Norte 32 Norte 0 1025 1 76
2019-12-11 22:00:00 17 15 Norte 22 Nordeste 0 1024.6 1 77
2019-12-11 21:00:00 17.4 17 Norte 35 Norte 0 1024.4 1.1 74
2019-12-11 20:00:00 17.6 20 Norte 35 Norte 0 1024 0.9 73
2019-12-11 19:00:00 17.8 26 Norte 37 Nordeste 0 1023.6 0.5 70
2019-12-11 18:00:00 18.8 18 Nordeste 46 Nordeste 0 1023.3 -0.1 67
2019-12-11 17:00:00 20.1 24 Nordeste 45 Nordeste 0 1023.1 -0.9 63
2019-12-11 16:00:00 20.9 27 Nordeste 45 Norte 0 1023.1 -1.9 58
2019-12-11 15:00:00 20.6 26 Nordeste 39 Norte 0 1023.4 -2.5 61
2019-12-11 14:00:00 21 22 Nordeste 37 Nordeste 0 1024 -2 59
2019-12-11 13:00:00 20.2 19 Nordeste 35 Norte 0 1025 -0.9 62
2019-12-11 12:00:00 20.2 22 Nordeste 33 Nordeste 0 1025.9 0.8 63
2019-12-11 11:00:00 19.6 24 Nordeste 37 Nordeste 0 1026 1.3 68
2019-12-11 10:00:00 19.1 24 Nordeste 35 Norte 0 1025.9 1.8 72
2019-12-11 09:00:00 17.6 16 Nordeste 28 Nordeste 0 1025.1 1.6 79
2019-12-11 08:00:00 16 19 Norte 26 Norte 0 1024.7 1.4 84
2019-12-11 07:00:00 16 14 Norte 21 Norte 0 1024.1 0.7 85
2019-12-11 06:00:00 16.3 14 Norte 24 Norte 0 1023.5 0 84
2019-12-11 05:00:00 16.1 15 Nordeste 21 Nordeste 0 1023.3 -0.4 86
2019-12-11 04:00:00 16.4 16 Norte 21 Norte 0 1023.4 -0.7 86
2019-12-11 03:00:00 16.9 15 Norte 24 Nordeste 0 1023.5 -0.7 84
2019-12-11 02:00:00 16.9 16 Norte 26 Nordeste 0 1023.7 -0.4 85
2019-12-11 01:00:00 17.2 15 Nordeste 22 Nordeste 0 1024.1 0.4 86
2019-12-11 00:00:00 17.2 14 Norte 24 Nordeste 0 1024.2 0.7 84
2019-12-10 23:00:00 17.9 19 Nordeste 32 Nordeste 0 1024.1 0.9 81
2019-12-10 22:00:00 18.1 17 Nordeste 33 Nordeste 0 1023.7 1 81
2019-12-10 21:00:00 18.2 25 Nordeste 35 Nordeste 0 1023.5 1.3 79
2019-12-10 20:00:00 18.4 19 Nordeste 35 Nordeste 0 1023.2 1.2 80
2019-12-10 19:00:00 18.8 22 Nordeste 39 Norte 0 1022.7 1 78
2019-12-10 18:00:00 19.3 28 Nordeste 46 Nordeste 0 1022.2 0.3 75
2019-12-10 17:00:00 20.5 29 Nordeste 45 Nordeste 0 1022 -0.4 68
2019-12-10 16:00:00 21.8 29 Norte 59 Norte 0 1021.7 -1.6 61
2019-12-10 15:00:00 22.8 30 Norte 45 Norte 0 1021.9 -2.1 59
2019-12-10 14:00:00 22.9 25 Norte 42 Norte 0 1022.4 -2.1 59
2019-12-10 13:00:00 22.8 24 Norte 42 Noroeste 0 1023.3 -1.5 59
2019-12-10 12:00:00 22.6 22 Norte 33 Norte 0 1024 -0.5 60
2019-12-10 11:00:00 21.6 20 Nordeste 37 Norte 0 1024.5 0.4 63
2019-12-10 10:00:00 20.5 19 Nordeste 30 Norte 0 1024.8 1.1 70
2019-12-10 09:00:00 18.2 14 Norte 24 Norte 0 1024.5 1.2 82
2019-12-10 08:00:00 16 18 Norte 22 Norte 0 1024.1 1 88
2019-12-10 07:00:00 15 15 Norte 21 Norte 0 1023.7 0.3 90
2019-12-10 06:00:00 14.9 17 Norte 21 Norte 0 1023.3 -0.5 89
2019-12-10 05:00:00 15.1 18 Norte 24 Norte 0 1023.1 -1.4 87
2019-12-10 04:00:00 15.5 15 Norte 28 Norte 0 1023.4 -1.4 85
2019-12-10 03:00:00 15.8 22 Norte 32 Norte 0 1023.8 -1.2 83
2019-12-10 02:00:00 15.5 14 Norte 24 Norte 0 1024.5 -0.8 84
2019-12-10 01:00:00 15.4 9 Norte 18 Norte 0 1024.8 -0.3 85
2019-12-10 00:00:00 15.8 10 Norte 17 Norte 0 1025 0.3 85
2019-12-09 23:00:00 16.6 12 Norte 22 Norte 0 1025.3 0.9 82
2019-12-09 22:00:00 17.2 19 Nordeste 26 Norte 0 1025.1 1.1 79
2019-12-09 21:00:00 17 17 Norte 24 Norte 0 1024.7 1.1 80
2019-12-09 20:00:00 17.5 17 Norte 28 Norte 0 1024.4 1 77
2019-12-09 19:00:00 18.2 17 Norte 33 Nordeste 0 1024 0.8 75
2019-12-09 18:00:00 19.1 20 Nordeste 33 Nordeste 0 1023.6 0.4 72
2019-12-09 17:00:00 20.5 25 Nordeste 37 Nordeste 0 1023.4 -0.5 65
2019-12-09 16:00:00 21.7 22 Nordeste 35 Nordeste 0 1023.2 -1.6 59
2019-12-09 15:00:00 22.2 22 Nordeste 37 Nordeste 0 1023.2 -2.5 58
2019-12-09 14:00:00 22.3 26 Nordeste 39 Nordeste 0 1023.9 -2.3 56
2019-12-09 13:00:00 22.2 25 Nordeste 39 Nordeste 0 1024.8 -1.4 57
2019-12-09 12:00:00 21.8 26 Nordeste 45 Nordeste 0 1025.7 0 59
2019-12-09 11:00:00 21 27 Nordeste 41 Nordeste 0 1026.2 1 62
2019-12-09 10:00:00 19.8 27 Nordeste 41 Nordeste 0 1026.2 1.6 70
2019-12-09 09:00:00 18.1 17 Nordeste 28 Nordeste 0 1025.7 1.6 80
2019-12-09 08:00:00 16.1 9 Nordeste 22 Norte 0 1025.2 1.2 85
2019-12-09 07:00:00 16.1 15 Norte 26 Norte 0 1024.6 0.5 85
2019-12-09 06:00:00 16.4 17 Norte 32 Norte 0 1024.1 0 84
2019-12-09 05:00:00 16.6 20 Norte 30 Norte 0 1024 -0.2 85
2019-12-09 04:00:00 15.8 15 Norte 24 Norte 0 1024.1 -0.5 86
2019-12-09 03:00:00 16.7 18 Nordeste 33 Nordeste 0 1024.1 -1 82
2019-12-09 02:00:00 17.2 22 Nordeste 33 Nordeste 0 1024.2 -0.8 80
2019-12-09 01:00:00 17.2 26 Norte 37 Norte 0 1024.6 -0.1 78
2019-12-09 00:00:00 16.9 24 Norte 35 Norte 0 1025.1 0.8 79
2019-12-08 23:00:00 16.9 23 Norte 33 Norte 0 1025 1.2 78
2019-12-08 22:00:00 17 23 Norte 35 Norte 0 1024.7 1.5 78
2019-12-08 21:00:00 17.6 21 Norte 33 Nordeste 0 1024.3 1.6 76
2019-12-08 20:00:00 18 23 Norte 32 Nordeste 0 1023.8 1.5 74
2019-12-08 19:00:00 18.1 20 Norte 35 Nordeste 0 1023.2 0.9 74
2019-12-08 18:00:00 19.1 27 Norte 41 Nordeste 0 1022.7 0.6 67
2019-12-08 17:00:00 20.1 29 Nordeste 45 Nordeste 0 1022.3 -0.1 62
2019-12-08 16:00:00 21.1 30 Nordeste 46 Norte 0 1022.3 -0.9 59
2019-12-08 15:00:00 21.6 28 Nordeste 42 Norte 0 1022.1 -2.1 58
2019-12-08 14:00:00 22 26 Nordeste 42 Nordeste 0 1022.4 -2.2 55
2019-12-08 13:00:00 22.4 29 Nordeste 42 Norte 0 1023.2 -1.3 53
2019-12-08 12:00:00 21.1 29 Nordeste 46 Norte 0 1024.2 0.3 57
2019-12-08 11:00:00 19.6 24 Nordeste 41 Nordeste 0 1024.6 1.3 60
2019-12-08 10:00:00 19.5 26 Nordeste 39 Nordeste 0 1024.5 1.9 64
2019-12-08 09:00:00 17.5 3 Oeste 24 Nordeste 0 1023.9 2 73
2019-12-08 08:00:00 14.7 17 Norte 26 Norte 0 1023.3 1.5 83
2019-12-08 07:00:00 14.8 19 Norte 24 Norte 0 1022.6 0.6 83
2019-12-08 06:00:00 14.8 19 Norte 24 Norte 0 1021.9 -0.4 84
2019-12-08 05:00:00 14.6 13 Norte 26 Norte 0 1021.8 -0.9 83
2019-12-08 04:00:00 15.7 19 Norte 30 Norte 0 1022 -1.1 80
2019-12-08 03:00:00 15.7 22 Norte 30 Norte 0 1022.3 -1.2 81
2019-12-08 02:00:00 15.7 20 Norte 28 Norte 0 1022.7 -0.8 81
2019-12-08 01:00:00 15.8 19 Norte 26 Norte 0 1023.1 -0.1 83
2019-12-08 00:00:00 15.9 18 Norte 28 Norte 0 1023.5 0.7 82
2019-12-07 23:00:00 16.6 20 Norte 28 Norte 0 1023.5 1.4 82
2019-12-07 22:00:00 16.8 19 Norte 26 Norte 0 1023.2 2 83
2019-12-07 21:00:00 16.5 16 Norte 33 Norte 0 1022.8 2.3 84
2019-12-07 20:00:00 16.9 13 Norte 24 Norte 0 1022.1 2.2 83
2019-12-07 19:00:00 17.6 17 Norte 28 Norte 0 1021.2 1.6 78
2019-12-07 18:00:00 18.9 18 Norte 48 Norte 0 1020.5 1.2 75
2019-12-07 17:00:00 20.3 28 Norte 41 Nordeste 0 1019.9 0.3 71
2019-12-07 16:00:00 20.6 28 Norte 42 Norte 0 1019.6 -0.7 69
2019-12-07 15:00:00 21.7 25 Norte 41 Norte 0 1019.3 -1.6 58
2019-12-07 14:00:00 20.7 26 Norte 35 Norte 0 1019.6 -1.6 65
2019-12-07 13:00:00 20.1 21 Norte 32 Norte 0 1020.3 -0.6 67
2019-12-07 12:00:00 20.4 22 Norte 32 Norte 0 1020.9 0.6 69
2019-12-07 11:00:00 20.4 17 Norte 33 Norte 0 1021.2 1.8 68
2019-12-07 10:00:00 19.4 16 Norte 35 Nordeste 0 1020.9 2.3 74
2019-12-07 09:00:00 17.4 11 Norte 17 Norte 0 1020.3 2.2 87
2019-12-07 08:00:00 14.8 11 Norte 26 Noroeste 0 1019.4 1.7 92
2019-12-07 07:00:00 15.8 12 Norte 18 Noroeste 0 1018.6 0.9 89
2019-12-07 06:00:00 14.8 8 Norte 18 Noroeste 0 1018.1 0.5 90
2019-12-07 05:00:00 14.8 13 Norte 18 Norte 0 1017.7 0.5 87
2019-12-07 04:00:00 14.8 13 Noroeste 18 Norte 0 1017.7 0.8 87
2019-12-07 03:00:00 15 15 Norte 26 Norte 0 1017.6 0.6 85
2019-12-07 02:00:00 15.3 21 Norte 28 Norte 0 1017.2 0 83
2019-12-07 01:00:00 14.9 18 Norte 30 Norte 0 1016.9 0 83
2019-12-07 00:00:00 14.8 20 Norte 24 Norte 0 1017 0.4 88
2019-12-06 23:00:00 14.9 15 Norte 22 Norte 0 1017.2 1.2 87
2019-12-06 22:00:00 15.5 15 Norte 22 Norte 0 1016.9 1.8 85
2019-12-06 21:00:00 14.7 9 Norte 21 Norte 0 1016.6 1.8 90
2019-12-06 20:00:00 15.3 17 Norte 39 Noroeste 0 1016 2 86
2019-12-06 19:00:00 15 5 Noroeste 15 Nordeste 0 1015.1 1.8 88
2019-12-06 18:00:00 15 12 Nordeste 39 Nordeste 1.5 1014.8 1.8 88
2019-12-06 17:00:00 16 22 Norte 58 Norte 0.8 1014 1 83
2019-12-06 16:00:00 19.4 28 Norte 45 Norte 0 1013.3 0 66
2019-12-06 15:00:00 19.9 32 Norte 46 Norte 0 1013 -1 63
2019-12-06 14:00:00 20.3 31 Norte 48 Norte 0 1013 -1.1 66
2019-12-06 13:00:00 20.4 34 Norte 45 Norte 0 1013.3 -0.7 67
2019-12-06 12:00:00 20 30 Norte 46 Norte 0 1014 0.3 72
2019-12-06 11:00:00 19.2 23 Norte 37 Norte 0 1014.1 1 78
2019-12-06 10:00:00 19.1 22 Norte 33 Norte 0 1014 1.7 77
2019-12-06 09:00:00 16.7 18 Norte 26 Norte 0 1013.7 2.2 85
2019-12-06 08:00:00 15.1 15 Norte 28 Norte 0 1013.1 1.9 85
2019-12-06 07:00:00 15.6 25 Norte 42 Norte 0.2 1012.3 1.4 88
2019-12-06 06:00:00 15 17 Norte 35 Norte 2.6 1011.5 1 94
2019-12-06 05:00:00 15.4 18 Norte 24 Norte 0 1011.2 0.9 85
2019-12-06 04:00:00 14.5 11 Norte 28 Norte 0 1010.9 1.1 91
2019-12-06 03:00:00 15.6 17 Norte 35 Norte 0 1010.5 0.2 85
2019-12-06 02:00:00 16.2 22 Norte 32 Norte 0 1010.3 0.3 86
2019-12-06 01:00:00 15.7 18 Norte 35 Norte 0 1009.8 0.1 90
2019-12-06 00:00:00 15.9 24 Norte 41 Norte 1.2 1010.3 0.5 89
2019-12-05 23:00:00 16.2 28 Norte 42 Norte 0.1 1010 0.8 86
2019-12-05 22:00:00 17 31 Norte 48 Norte 0 1009.7 0.9 78
2019-12-05 21:00:00 17.5 27 Norte 41 Norte 0 1009.8 1.5 73
2019-12-05 20:00:00 17.4 22 Noroeste 39 Noroeste 0 1009.2 1.4 72
2019-12-05 19:00:00 17 23 Norte 45 Norte 0 1008.8 0.7 73
2019-12-05 18:00:00 16.7 27 Norte 45 Noroeste 0 1008.3 0.1 79
2019-12-05 17:00:00 18 26 Norte 54 Norte 0 1007.8 -0.4 71
2019-12-05 16:00:00 18.2 40 Norte 61 Norte 0 1008.1 -0.3 72
2019-12-05 15:00:00 16 24 Norte 50 Norte 0.6 1008.2 -1.1 96
2019-12-05 14:00:00 16.9 33 Norte 59 Noroeste 1.4 1008.2 -1.5 86
2019-12-05 13:00:00 19.3 30 Noroeste 48 Noroeste 0 1008.4 -1.7 69
2019-12-05 12:00:00 19.4 32 Noroeste 58 Noroeste 0 1009.3 -0.3 64
2019-12-05 11:00:00 18.9 32 Noroeste 46 Noroeste 0 1009.7 0.5 66
2019-12-05 10:00:00 16.7 31 Noroeste 46 Noroeste 0.3 1010.1 1.4 86
2019-12-05 09:00:00 17.4 30 Noroeste 42 Noroeste 0 1009.6 1.1 71
2019-12-05 08:00:00 16.3 29 Noroeste 48 Norte 0 1009.2 0.7 74
2019-12-05 07:00:00 16.3 31 Norte 55 Norte 0.1 1008.7 -0.1 74
2019-12-05 06:00:00 16.5 27 Noroeste 48 Noroeste 0 1008.5 0.5 69
2019-12-05 05:00:00 16.6 32 Norte 52 Norte 0 1008.5 -1.1 67
2019-12-05 04:00:00 16.8 32 Noroeste 54 Noroeste 0 1008.8 -1.6 67
2019-12-05 03:00:00 16.6 41 Norte 63 Norte 0 1008 -3.2 68
2019-12-05 02:00:00 14.8 33 Norte 50 Norte 1 1009.6 -2.2 98
2019-12-05 01:00:00 16 21 Norte 35 Norte 0.7 1010.4 -2 94
2019-12-05 00:00:00 17.3 13 Oeste 28 Oeste 2.3 1011.2 -1.6 89
2019-12-04 23:00:00 17.9 9 Oeste 13 Sudoeste 0 1011.8 -1.6 76
2019-12-04 22:00:00 18.1 9 Oeste 21 Noroeste 0 1012.4 -0.8 76
2019-12-04 21:00:00 18 4 Oeste 21 Noroeste 0 1012.8 0 74
2019-12-04 20:00:00 18.6 14 Noroeste 24 Noroeste 0 1013.4 -0.1 69
2019-12-04 19:00:00 18.3 9 Oeste 28 Noroeste 0 1013.2 -0.5 70
2019-12-04 18:00:00 18.4 16 Noroeste 45 Noroeste 0 1012.8 -0.8 66
2019-12-04 17:00:00 19.8 17 Noroeste 39 Noroeste 0 1013.5 -0.4 62
2019-12-04 16:00:00 20.8 26 Noroeste 39 Noroeste 0 1013.7 -0.8 53
2019-12-04 15:00:00 21.6 21 Noroeste 39 Noroeste 0 1013.6 -2.2 50
2019-12-04 14:00:00 21.6 24 Noroeste 37 Noroeste 0 1013.9 -2.9 48
2019-12-04 13:00:00 22.1 19 Noroeste 35 Noroeste 0 1014.5 -2.3 47
2019-12-04 12:00:00 21 20 Noroeste 42 Noroeste 0 1015.8 -0.7 53
2019-12-04 11:00:00 20.8 21 Noroeste 33 Noroeste 0 1016.8 0.9 51
2019-12-04 10:00:00 19.7 12 Noroeste 30 Oeste 0 1016.8 1.3 61
2019-12-04 09:00:00 18.8 12 Noroeste 18 Noroeste 0 1016.5 1.5 64
2019-12-04 08:00:00 17 13 Noroeste 42 Noroeste 0 1015.9 1 71
2019-12-04 07:00:00 16.7 19 Noroeste 33 Noroeste 0 1015.5 0.1 72
2019-12-04 06:00:00 17 22 Noroeste 30 Norte 0 1015 -0.5 70
2019-12-04 05:00:00 16.6 18 Noroeste 24 Noroeste 0 1014.9 -0.6 73
2019-12-04 04:00:00 17.3 15 Noroeste 24 Noroeste 0 1015.4 -0.2 74
2019-12-04 03:00:00 17.2 18 Noroeste 28 Noroeste 0 1015.5 -1 73
2019-12-04 02:00:00 16.7 13 Norte 18 Norte 0 1015.5 -1.3 76
2019-12-04 01:00:00 16.9 14 Norte 22 Norte 0 1015.6 -0.7 74
2019-12-04 00:00:00 17.2 14 Norte 22 Norte 0 1016.5 0.9 71
2019-12-03 23:00:00 16.6 10 Norte 15 Norte 0 1016.8 1.5 75
2019-12-03 22:00:00 17.1 12 Norte 24 Norte 0 1016.3 1.6 72
2019-12-03 21:00:00 17.6 16 Norte 28 Norte 0 1015.6 1.5 69
2019-12-03 20:00:00 17.9 20 Norte 33 Noroeste 0 1015.3 1.5 70
2019-12-03 19:00:00 18 18 Norte 39 Noroeste 0 1014.7 1.3 67
2019-12-03 18:00:00 18.5 20 Norte 32 Norte 0 1014.1 1.2 62
2019-12-03 17:00:00 19 20 Norte 41 Norte 0 1013.8 0.9 64
2019-12-03 16:00:00 20.1 29 Norte 59 Noroeste 0 1013.4 0.2 63
2019-12-03 15:00:00 22.1 33 Norte 52 Norte 0 1012.9 -0.8 51
2019-12-03 14:00:00 22.2 37 Norte 52 Norte 0 1012.9 -0.8 48
2019-12-03 13:00:00 21.9 36 Norte 54 Norte 0 1013.2 -0.5 46
2019-12-03 12:00:00 21.8 38 Norte 52 Norte 0 1013.7 0.7 51
2019-12-03 11:00:00 21.1 29 Norte 45 Noroeste 0 1013.7 1.2 54
2019-12-03 10:00:00 19.5 24 Norte 39 Noroeste 0 1013.7 1.9 57
2019-12-03 09:00:00 19 20 Norte 33 Norte 0 1013 1.9 57
2019-12-03 08:00:00 16.9 14 Norte 32 Noroeste 0 1012.5 1.5 59
2019-12-03 07:00:00 16.9 16 Norte 30 Noroeste 0 1011.8 1.1 67
2019-12-03 06:00:00 16.7 21 Noroeste 42 Noroeste 0 1011.1 0.2 78
2019-12-03 05:00:00 18 25 Noroeste 42 Noroeste 0 1011 -0.2 62
2019-12-03 04:00:00 17.8 20 Noroeste 35 Norte 0 1010.7 -0.8 67
2019-12-03 03:00:00 17.8 18 Norte 32 Norte 0 1010.9 -1.1 65
2019-12-03 02:00:00 17.6 20 Noroeste 33 Norte 0 1011.2 -1.1 65
2019-12-03 01:00:00 17.3 22 Noroeste 35 Noroeste 0 1011.5 -1 68
2019-12-03 00:00:00 17.4 23 Noroeste 41 Noroeste 0.1 1012 -0.4 70
2019-12-02 23:00:00 18 19 Noroeste 32 Noroeste 0 1012.3 -0.1 62
2019-12-02 22:00:00 18.4 26 Noroeste 42 Norte 0 1012.5 0.3 64
2019-12-02 21:00:00 18 19 Norte 33 Norte 0 1012.4 0.7 72
2019-12-02 20:00:00 18.3 14 Noroeste 35 Noroeste 0 1012.4 0.9 63
2019-12-02 19:00:00 18.4 23 Norte 41 Noroeste 0 1012.2 0.6 65
2019-12-02 18:00:00 18.7 16 Noroeste 37 Noroeste 0 1011.7 0 63
2019-12-02 17:00:00 19.9 26 Norte 48 Noroeste 0 1011.5 -0.7 58
2019-12-02 16:00:00 18.6 26 Norte 42 Noroeste 0.1 1011.6 -1.5 81
2019-12-02 15:00:00 20.3 25 Norte 45 Norte 0 1011.7 -2.1 63
2019-12-02 14:00:00 22 22 Noroeste 46 Norte 0 1012.2 -2.5 55
2019-12-02 13:00:00 19.2 27 Norte 50 Norte 0.1 1013.1 -1.9 78
2019-12-02 12:00:00 22 26 Noroeste 42 Norte 0 1013.8 -1.1 55
2019-12-02 11:00:00 21.1 25 Noroeste 45 Noroeste 0 1014.7 -0.2 59
2019-12-02 10:00:00 20.6 23 Noroeste 41 Noroeste 0 1015 0.2 60
2019-12-02 09:00:00 19.6 23 Noroeste 37 Noroeste 0 1014.9 0.3 59
2019-12-02 08:00:00 18.3 15 Noroeste 33 Noroeste 0 1014.9 0 67
2019-12-02 07:00:00 17.9 16 Noroeste 33 Noroeste 0 1014.8 -0.6 68
2019-12-02 06:00:00 17.7 14 Noroeste 32 Norte 0 1014.6 -1.2 67
2019-12-02 05:00:00 17.1 11 Noroeste 17 Noroeste 0 1014.9 -1.1 69
2019-12-02 04:00:00 17.8 15 Norte 28 Norte 0 1015.4 -0.8 68
2019-12-02 03:00:00 18.2 23 Norte 33 Norte 0 1015.8 -1.1 78
2019-12-02 02:00:00 18.2 14 Norte 26 Norte 0 1016 -1.5 79
2019-12-02 01:00:00 17.9 8 Norte 18 Norte 0 1016.2 -1.3 77
2019-12-02 00:00:00 19.1 17 Norte 32 Norte 0 1016.9 -0.8 75
2019-12-01 23:00:00 18.7 10 Norte 21 Norte 0 1017.5 -0.1 83
2019-12-01 22:00:00 18.3 3 Nordeste 9 Oeste 0 1017.5 -0.1 80
2019-12-01 21:00:00 18.1 6 Norte 28 Noroeste 0 1017.7 0 76
2019-12-01 20:00:00 17.9 4 Noroeste 15 Noroeste 0 1017.6 0.1 76
2019-12-01 19:00:00 18.8 13 Norte 39 Norte 0 1017.6 0 75
2019-12-01 18:00:00 20 19 Norte 33 Norte 0 1017.7 -0.2 69
2019-12-01 17:00:00 21.6 23 Norte 46 Noroeste 0 1017.5 -0.6 63
2019-12-01 16:00:00 22.7 30 Norte 48 Noroeste 0 1017.6 -1.1 55
2019-12-01 15:00:00 23 29 Norte 54 Norte 0 1017.9 -1.4 51
2019-12-01 14:00:00 23.8 29 Norte 41 Norte 0 1018.1 -1.9 50
2019-12-01 13:00:00 23.9 23 Norte 39 Norte 0 1018.7 -1.5 52
2019-12-01 12:00:00 23.1 14 Norte 39 Norte 0 1019.3 -0.1 54
2019-12-01 11:00:00 21.6 18 Norte 30 Norte 0 1020 1 61
2019-12-01 10:00:00 20.3 15 Nordeste 24 Nordeste 0 1020.2 1.5 72
2019-12-01 09:00:00 19 12 Nordeste 18 Norte 0 1019.4 1.2 77
2019-12-01 08:00:00 15.9 11 Norte 15 Norte 0 1019 0.9 88
2019-12-01 07:00:00 16.5 11 Norte 21 Nordeste 0 1018.7 0.5 85
2019-12-01 06:00:00 17.2 15 Nordeste 30 Norte 0 1018.2 -0.1 85
2019-12-01 05:00:00 17.7 19 Nordeste 28 Nordeste 0 1018.1 -0.4 83
2019-12-01 04:00:00 17.9 17 Nordeste 30 Nordeste 0 1018.2 -0.7 83
2019-12-01 03:00:00 18 14 Nordeste 28 Nordeste 0 1018.3 -0.9 83
2019-12-01 02:00:00 18.2 19 Nordeste 30 Norte 0 1018.5 -1 83
2019-12-01 01:00:00 18.1 19 Nordeste 28 Nordeste 0 1018.9 -0.2 83
2019-12-01 00:00:00 17.7 14 Nordeste 22 Nordeste 0 1019.2 0.1 82
2019-11-30 23:00:00 18 14 Nordeste 22 Norte 0 1019.5 0.6 83
2019-11-30 22:00:00 18.1 12 Nordeste 18 Nordeste 0 1019.1 0.8 75
2019-11-30 21:00:00 18.7 13 Nordeste 22 Norte 0 1019.1 1.2 69
2019-11-30 20:00:00 19.5 19 Nordeste 26 Nordeste 0 1018.9 1.2 76
2019-11-30 19:00:00 20 17 Nordeste 28 Nordeste 0 1018.3 0.7 78
2019-11-30 18:00:00 21.1 17 Nordeste 39 Nordeste 0 1017.9 0.3 74
2019-11-30 17:00:00 23.3 22 Nordeste 37 Nordeste 0 1017.7 0.1 60
2019-11-30 16:00:00 24.8 26 Nordeste 35 Nordeste 0 1017.6 -0.6 49
2019-11-30 15:00:00 26 21 Nordeste 35 Este 0 1017.6 -1.3 48
2019-11-30 14:00:00 27.9 17 Nordeste 28 Este 0 1017.6 -1.6 34
2019-11-30 13:00:00 27.9 15 Este 28 Este 0 1018.2 -1 32
2019-11-30 12:00:00 27 16 Este 26 Nordeste 0 1018.9 0.3 33
2019-11-30 11:00:00 26 17 Nordeste 28 Este 0 1019.2 0.9 37
2019-11-30 10:00:00 24.6 17 Nordeste 26 Nordeste 0 1019.2 1.5 41
2019-11-30 09:00:00 22.3 13 Nordeste 21 Nordeste 0 1018.6 1.4 47
2019-11-30 08:00:00 18.5 14 Norte 24 Norte 0 1018.3 0.9 52
2019-11-30 07:00:00 18.7 14 Norte 22 Norte 0 1017.7 0.4 50
2019-11-30 06:00:00 17.9 17 Norte 22 Norte 0 1017.2 -0.2 58
2019-11-30 05:00:00 17.7 15 Norte 22 Norte 0 1017.4 0.2 63
2019-11-30 04:00:00 17.8 13 Norte 18 Norte 0 1017.3 0.3 67
2019-11-30 03:00:00 18.9 13 Norte 22 Nordeste 0 1017.4 0.6 68
2019-11-30 02:00:00 19.5 12 Nordeste 28 Nordeste 0 1017.2 0.2 67
2019-11-30 01:00:00 19.6 12 Nordeste 26 Nordeste 0 1017 0.3 68
2019-11-30 00:00:00 19.6 19 Nordeste 30 Nordeste 0 1016.8 0.5 64
2019-11-29 23:00:00 19.7 16 Nordeste 22 Nordeste 0 1017 1.2 64
2019-11-29 22:00:00 20 16 Nordeste 22 Nordeste 0 1016.7 1.3 64
2019-11-29 21:00:00 20.6 9 Este 15 Nordeste 0 1016.3 1 67
2019-11-29 20:00:00 20.7 10 Nordeste 17 Nordeste 0 1015.8 0.6 70
2019-11-29 19:00:00 21.4 12 Nordeste 22 Nordeste 0 1015.4 0.2 73
2019-11-29 18:00:00 22.9 15 Nordeste 22 Nordeste 0 1015.3 0.1 66
2019-11-29 17:00:00 23.9 15 Este 21 Este 0 1015.2 -0.4 65
2019-11-29 16:00:00 24.7 13 Este 22 Este 0 1015.2 -0.7 56
2019-11-29 15:00:00 25.4 12 Este 21 Este 0 1015.2 -1.7 48
2019-11-29 14:00:00 25.7 14 Este 24 Este 0 1015.6 -1.6 46
2019-11-29 13:00:00 26.3 14 Este 24 Nordeste 0 1015.9 -1.1 43
2019-11-29 12:00:00 25.4 15 Este 30 Nordeste 0 1016.9 0.6 45
2019-11-29 11:00:00 25.2 18 Nordeste 30 Nordeste 0 1017.2 1.5 45
2019-11-29 10:00:00 24.2 17 Nordeste 30 Nordeste 0 1017 1.8 50
2019-11-29 09:00:00 22.8 16 Nordeste 28 Nordeste 0 1016.3 1.3 47
2019-11-29 08:00:00 19.9 18 Norte 26 Norte 0 1015.7 0.8 50
2019-11-29 07:00:00 19.5 18 Nordeste 26 Norte 0 1015.2 0 54
2019-11-29 06:00:00 19.1 14 Nordeste 22 Norte 0 1015 0.1 64
2019-11-29 05:00:00 18.6 12 Nordeste 26 Norte 0 1014.9 0.2 85
2019-11-29 04:00:00 18.4 15 Nordeste 26 Nordeste 0 1015.2 0.1 88
2019-11-29 03:00:00 18.9 16 Nordeste 30 Nordeste 0 1014.9 0 84
2019-11-29 02:00:00 19 18 Norte 30 Norte 0 1014.7 -0.6 84
2019-11-29 01:00:00 19.3 17 Nordeste 28 Nordeste 0 1015.1 -0.3 78
2019-11-29 00:00:00 19.2 21 Nordeste 33 Norte 0 1014.9 0 71
2019-11-28 23:00:00 19.4 19 Nordeste 28 Nordeste 0 1015.3 0.8 61
2019-11-28 22:00:00 18.7 11 Nordeste 18 Nordeste 0 1015.4 1.3 66
2019-11-28 21:00:00 19.4 12 Nordeste 17 Nordeste 0 1014.9 1.2 65
2019-11-28 20:00:00 19.4 12 Nordeste 30 Nordeste 0 1014.5 1 69
2019-11-28 19:00:00 19.6 19 Nordeste 30 Nordeste 0 1014.1 0.9 78
2019-11-28 18:00:00 20.3 19 Nordeste 32 Nordeste 0 1013.7 0.4 77
2019-11-28 17:00:00 22.2 23 Nordeste 33 Nordeste 0 1013.5 -0.3 67
2019-11-28 16:00:00 24.1 23 Nordeste 32 Nordeste 0 1013.2 -1.7 55
2019-11-28 15:00:00 25.5 18 Nordeste 30 Nordeste 0 1013.3 -2.4 46
2019-11-28 14:00:00 25.5 20 Nordeste 32 Nordeste 0 1013.8 -2.6 48
2019-11-28 13:00:00 24.7 15 Nordeste 32 Este 0 1014.9 -1.5 53
2019-11-28 12:00:00 23.9 16 Nordeste 28 Nordeste 0 1015.7 -0.3 55
2019-11-28 11:00:00 21.8 16 Nordeste 30 Nordeste 0 1016.4 1 68
2019-11-28 10:00:00 19.3 16 Nordeste 28 Nordeste 0 1016.4 1.4 79
2019-11-28 09:00:00 18.8 15 Nordeste 24 Nordeste 0 1016 1.5 80
2019-11-28 08:00:00 17.3 10 Nordeste 21 Nordeste 0 1015.4 1.3 86
2019-11-28 07:00:00 17.3 12 Nordeste 22 Nordeste 0 1015 0.6 86
2019-11-28 06:00:00 16.2 8 Norte 18 Nordeste 0 1014.5 0 88
2019-11-28 05:00:00 16.5 12 Nordeste 22 Norte 0 1014.1 -0.9 87
2019-11-28 04:00:00 16 16 Norte 21 Norte 0 1014.4 -0.9 89
2019-11-28 03:00:00 16 12 Norte 15 Norte 0 1014.5 -1.2 88
2019-11-28 02:00:00 15.5 11 Norte 15 Norte 0 1015 -0.8 89
2019-11-28 01:00:00 16.1 12 Norte 15 Norte 0 1015.3 -0.6 87
2019-11-28 00:00:00 17.3 16 Norte 28 Norte 0 1015.7 0 84
2019-11-27 23:00:00 17.4 14 Norte 22 Norte 0 1015.8 0.4 84
2019-11-27 22:00:00 17.6 13 Norte 21 Norte 0 1015.9 1.1 83
2019-11-27 21:00:00 18.1 13 Norte 24 Norte 0 1015.7 1.3 82
2019-11-27 20:00:00 18.5 14 Norte 28 Norte 0 1015.4 1.4 80
2019-11-27 19:00:00 19 19 Norte 33 Norte 0 1014.8 1.1 79
2019-11-27 18:00:00 20 24 Norte 33 Norte 0 1014.4 0.7 74
2019-11-27 17:00:00 22.4 22 Norte 30 Norte 0 1014 0 63
2019-11-27 16:00:00 23.5 19 Norte 32 Nordeste 0 1013.7 -1.2 59
2019-11-27 15:00:00 24 18 Nordeste 35 Norte 0 1013.7 -2.1 58
2019-11-27 14:00:00 24.7 21 Norte 35 Norte 0 1014 -2.3 56
2019-11-27 13:00:00 24.3 15 Norte 33 Norte 0 1014.9 -1.7 57
2019-11-27 05:00:00 15.3 10 Norte 21 Norte 0 1014.3 -0.8 89
2019-11-27 04:00:00 16 14 Norte 21 Norte 0 1014.5 -0.9 87
2019-11-27 03:00:00 15.9 14 Norte 18 Norte 0 1014.8 -1.1 87
2019-11-27 02:00:00 16.2 14 Norte 17 Norte 0 1015.1 -0.1 88
2019-11-27 01:00:00 16.7 12 Norte 21 Norte 0 1015.4 -0.1 89
2019-11-27 00:00:00 17.6 13 Norte 39 Norte 0 1015.9 0.4 86
2019-11-26 23:00:00 18.3 28 Norte 45 Noroeste 0 1015.2 -0.1 84
2019-11-26 22:00:00 18.3 14 Nordeste 33 Nordeste 0 1015.5 0.6 83
2019-11-26 21:00:00 18.5 21 Nordeste 37 Norte 0 1015.5 0.9 84
2019-11-26 20:00:00 18.7 28 Norte 41 Norte 0 1015.3 1.1 82
2019-11-26 19:00:00 19.1 23 Norte 39 Norte 0 1014.9 0.9 81
2019-11-26 18:00:00 20.1 26 Norte 42 Norte 0 1014.6 0.5 75
2019-11-26 17:00:00 22.7 25 Norte 37 Nordeste 0 1014.2 0 64
2019-11-26 16:00:00 23.5 23 Nordeste 33 Nordeste 0 1014 -0.6 60
2019-11-26 15:00:00 24.6 25 Norte 39 Norte 0 1014.1 -1.5 57
2019-11-26 14:00:00 26.3 15 Norte 35 Noroeste 0 1014.2 -2.1 50
2019-11-26 13:00:00 26 20 Nordeste 30 Nordeste 0 1014.6 -1.8 42
2019-11-26 12:00:00 24.2 16 Nordeste 28 Nordeste -- 1015.6 -0.4 47
2019-11-26 11:00:00 23.2 16 Nordeste 30 Nordeste 0 1016.3 0.7 61
2019-11-26 10:00:00 21.2 22 Nordeste 35 Norte 0 1016.4 1.2 70
2019-11-26 09:00:00 18.9 19 Nordeste 28 Nordeste 0 1016 1 80
2019-11-26 08:00:00 16.8 10 Nordeste 18 Nordeste 0 1015.6 0.4 88
2019-11-26 07:00:00 16.8 14 Nordeste 22 Norte 0 1015.2 -0.2 87
2019-11-26 06:00:00 15.5 16 Norte 21 Norte 0 1015 -0.6 90
2019-11-26 05:00:00 15.5 11 Norte 17 Norte 0 1015.2 -0.5 89
2019-11-26 04:00:00 15.9 6 Norte 13 Norte 0 1015.4 -0.4 87
2019-11-26 03:00:00 16 4 Noroeste 9 Norte 0 1015.6 -0.6 86
2019-11-26 02:00:00 16.8 7 Norte 22 Norte 0 1015.7 -1 82
2019-11-26 01:00:00 17.1 13 Norte 32 Norte 0.2 1015.8 -1.1 82
2019-11-26 00:00:00 17.1 14 Norte 24 Nordeste 0 1016.2 -0.9 83
2019-11-25 23:00:00 17.7 16 Nordeste 22 Norte 0 1016.7 0.1 81
2019-11-25 22:00:00 17.7 13 Norte 26 Norte 0 1016.9 0.3 82
2019-11-25 21:00:00 18.4 17 Nordeste 30 Norte 0 1017.1 1.2 82
2019-11-25 20:00:00 18.8 21 Nordeste 30 Nordeste 0 1016.6 1.1 78
2019-11-25 19:00:00 19.1 19 Norte 33 Norte 0 1016.6 1.3 78
2019-11-25 18:00:00 19.5 24 Norte 33 Norte 0 1015.9 0.5 76
2019-11-25 17:00:00 21.4 25 Norte 35 Norte 0 1015.5 -0.4 67
2019-11-25 16:00:00 23.1 22 Norte 37 Nordeste 0 1015.3 -1.1 61
2019-11-25 15:00:00 23.1 23 Nordeste 41 Este 0 1015.4 -2 59
2019-11-25 14:00:00 23.1 22 Nordeste 37 Nordeste 0 1015.9 -2.3 60
2019-11-25 13:00:00 23 23 Nordeste 41 Nordeste 0 1016.4 -1.9 60
2019-11-25 12:00:00 22.1 26 Nordeste 41 Nordeste 0 1017.4 -0.1 64
2019-11-25 11:00:00 20.3 23 Nordeste 37 Nordeste 0 1018.2 1.2 70
2019-11-25 10:00:00 19.9 25 Nordeste 37 Nordeste 0 1018.3 1.9 71
2019-11-25 09:00:00 19.2 22 Nordeste 33 Nordeste 0 1017.5 1.6 73
2019-11-25 08:00:00 18.4 20 Norte 33 Norte 0 1017 1.1 74
2019-11-25 07:00:00 18.1 18 Norte 33 Norte 0 1016.4 0.6 76
2019-11-25 06:00:00 17.6 20 Norte 32 Nordeste 0 1015.9 -0.4 78
2019-11-25 05:00:00 15.8 15 Norte 26 Nordeste 0 1015.9 -0.4 84
2019-11-25 04:00:00 16.2 15 Norte 22 Norte 0 1015.8 -1 83
2019-11-25 03:00:00 16.6 14 Norte 24 Norte 0 1016.3 -0.8 80
2019-11-25 02:00:00 17.3 13 Nordeste 30 Norte 0 1016.3 -0.9 77
2019-11-25 01:00:00 17.5 19 Norte 32 Norte 0 1016.8 -0.7 76
2019-11-25 00:00:00 17 13 Norte 24 Norte 0 1017.1 -0.3 77
2019-11-24 23:00:00 17.9 18 Norte 32 Norte 0 1017.2 0.1 74
2019-11-24 22:00:00 18.1 21 Norte 32 Norte 0 1017.5 1.3 72
2019-11-24 21:00:00 18.5 15 Norte 32 Norte 0 1017.4 1.5 70
2019-11-24 20:00:00 19.6 19 Norte 37 Norte 0 1017.1 1.5 70
2019-11-24 19:00:00 19.6 15 Norte 39 Norte 0 1016.2 0.7 71
2019-11-24 18:00:00 20.1 21 Norte 41 Norte 0 1015.9 0.3 68
2019-11-24 17:00:00 21.3 30 Norte 45 Norte 0 1015.6 -0.2 62
2019-11-24 16:00:00 22.4 28 Norte 46 Norte 0 1015.5 -0.9 58
2019-11-24 15:00:00 23.2 30 Norte 45 Norte 0 1015.6 -1.8 56
2019-11-24 14:00:00 23.2 32 Norte 45 Norte 0 1015.8 -1.9 54
2019-11-24 13:00:00 23.7 31 Norte 50 Norte 0 1016.4 -1.2 53
2019-11-24 12:00:00 23.1 32 Norte 46 Noroeste 0 1017.4 0.3 55
2019-11-24 11:00:00 22.1 33 Norte 50 Nordeste 0 1017.7 1.1 59
2019-11-24 10:00:00 21.6 32 Norte 45 Norte 0 1017.6 1.6 65
2019-11-24 09:00:00 20 25 Norte 37 Nordeste 0 1017.1 1.7 75
2019-11-24 08:00:00 17.9 19 Norte 30 Nordeste 0 1016.6 1.2 85
2019-11-24 07:00:00 18 17 Norte 22 Norte 0 1016 0.4 88
2019-11-24 06:00:00 18.2 14 Norte 32 Norte 0 1015.4 -0.5 89
2019-11-24 05:00:00 17.6 10 Norte 22 Norte 0 1015.4 -0.7 92
2019-11-24 04:00:00 17.9 18 Norte 28 Norte 0 1015.6 -0.6 88
2019-11-24 03:00:00 18 12 Norte 24 Norte 0 1015.9 -0.6 86
2019-11-24 02:00:00 18.2 13 Norte 39 Norte 0 1016.1 -0.8 87
2019-11-24 01:00:00 18.6 17 Norte 32 Norte 0 1016.2 -0.6 86
2019-11-24 00:00:00 19.1 23 Norte 33 Norte 0 1016.5 -0.1 82
2019-11-23 23:00:00 19.1 19 Norte 32 Norte 0 1016.9 0.7 84
2019-11-23 22:00:00 19.3 20 Norte 30 Norte 0 1016.8 1.2 83
2019-11-23 21:00:00 19.4 22 Norte 37 Norte 0 1016.6 1.4 82
2019-11-23 20:00:00 19.4 21 Norte 45 Norte 0 1016.2 1.4 83
2019-11-23 19:00:00 19.5 14 Norte 37 Noroeste 0 1015.6 1.2 81
2019-11-23 18:00:00 20.6 20 Norte 41 Norte 0 1015.2 1 75
2019-11-23 17:00:00 22.3 27 Norte 48 Noroeste 0 1014.8 0 68
2019-11-23 16:00:00 23.1 27 Norte 54 Norte 0 1014.4 -1 67
2019-11-23 15:00:00 23.4 37 Norte 45 Norte 0 1014.2 -1.9 71
2019-11-23 14:00:00 22.5 37 Norte 55 Norte 0 1014.8 -1.7 80
2019-11-23 13:00:00 21 25 Noroeste 42 Norte 0.1 1015.4 -1 90
2019-11-23 12:00:00 23.9 22 Noroeste 35 Noroeste 0 1016.1 0.5 72
2019-11-23 11:00:00 24.4 22 Noroeste 45 Noroeste 0 1016.5 1.4 68
2019-11-23 10:00:00 23.6 22 Noroeste 41 Noroeste 0 1016.4 1.8 73
2019-11-23 09:00:00 21.5 22 Noroeste 33 Noroeste 0 1015.6 1.4 83
2019-11-23 08:00:00 20.9 15 Noroeste 35 Noroeste 0 1015.1 0.8 84
2019-11-23 07:00:00 20.9 16 Noroeste 24 Noroeste 0 1014.6 0 83
2019-11-23 06:00:00 19.8 3 Sudoeste 11 Oeste 0 1014.2 -0.7 87
2019-11-23 05:00:00 20 7 Oeste 13 Oeste 0 1014.3 -0.7 84
2019-11-23 04:00:00 20 13 Oeste 22 Oeste 0 1014.6 -0.6 84
2019-11-23 03:00:00 20.2 14 Noroeste 24 Noroeste 0 1014.9 -0.5 83
2019-11-23 02:00:00 20.4 8 Oeste 17 Noroeste 0 1015 -0.4 84
2019-11-23 01:00:00 19.8 8 Sudoeste 13 Sudoeste 0 1015.2 -0.1 87
2019-11-23 00:00:00 20.1 9 Sudoeste 13 Sudoeste 0 1015.4 0.3 87
2019-11-22 23:00:00 20.2 9 Oeste 13 Oeste 0 1015.4 0.9 85
2019-11-22 22:00:00 20.2 10 Oeste 15 Oeste 0 1015.3 1.2 84
2019-11-22 21:00:00 20.6 11 Oeste 17 Oeste 0 1015.1 1.6 80
2019-11-22 20:00:00 20.9 12 Oeste 30 Oeste 0 1014.5 1.6 77
2019-11-22 19:00:00 21 14 Oeste 41 Oeste 0 1014.1 1.5 76
2019-11-22 18:00:00 21.6 13 Oeste 39 Oeste 0 1013.5 0.7 72
2019-11-22 17:00:00 23.1 17 Oeste 33 Oeste 0 1012.9 -0.5 64
2019-11-22 16:00:00 24.5 15 Oeste 30 Noroeste 0 1012.6 -1.5 59
2019-11-22 15:00:00 24.6 17 Oeste 46 Noroeste 0 1012.8 -1.7 57
2019-11-22 14:00:00 23.7 17 Oeste 45 Oeste 0 1013.4 -1.4 59
2019-11-22 13:00:00 23.1 19 Noroeste 52 Noroeste 0 1014.1 -0.3 66
2019-11-22 12:00:00 22.2 12 Noroeste 30 Norte 0 1014.5 0.6 76
2019-11-22 11:00:00 23.3 11 Noroeste 28 Noroeste 0 1014.8 2 67
2019-11-22 10:00:00 22 12 Norte 22 Norte 0 1014.4 2.2 77
2019-11-22 09:00:00 20 8 Oeste 22 Noroeste 0 1013.9 2.5 85
2019-11-22 08:00:00 19.3 9 Noroeste 17 Norte 0 1012.8 1.2 94
2019-11-22 07:00:00 18.8 5 Noroeste 15 Sudoeste 0 1012.2 0.2 98
2019-11-22 06:00:00 18.9 11 Sudoeste 15 Sudoeste 0.2 1011.4 -0.7 98
2019-11-22 05:00:00 18.9 10 Sudoeste 15 Sudoeste 0 1011.6 -0.6 97
2019-11-22 04:00:00 18.7 7 Sudoeste 13 Oeste 0 1012 -0.2 96
2019-11-22 03:00:00 18.8 11 Oeste 18 Sudoeste 0 1012.1 -0.7 95
2019-11-22 02:00:00 19.5 13 Sudoeste 24 Sudoeste 0 1012.2 -0.8 88
2019-11-22 01:00:00 19.5 13 Sudoeste 22 Sudoeste 0 1012.2 -0.5 87
2019-11-22 00:00:00 19.6 13 Sudoeste 18 Sudoeste 0 1012.8 0.1 87
2019-11-21 23:00:00 19 4 Oeste 13 Sudoeste 0 1013 0.4 83
2019-11-21 22:00:00 19.1 9 Sudoeste 13 Sudoeste 0 1012.7 0.2 82
2019-11-21 21:00:00 19.1 7 Sudoeste 17 Sudoeste 0 1012.7 0.6 80
2019-11-21 20:00:00 20 10 Oeste 28 Oeste 0 1012.6 1.1 76
2019-11-21 19:00:00 20.4 14 Oeste 30 Oeste 0 1012.5 0.8 73
2019-11-21 18:00:00 21 21 Oeste 35 Oeste 0 1012.1 0.6 68
2019-11-21 17:00:00 22.3 21 Oeste 39 Sudoeste 0 1011.5 -0.5 60
2019-11-21 16:00:00 22.9 24 Oeste 39 Oeste 0 1011.7 -0.8 59
2019-11-21 15:00:00 23.4 26 Oeste 45 Oeste 0 1011.5 -2 57
2019-11-21 14:00:00 23.9 27 Oeste 41 Oeste 0 1012 -2.3 55
2019-11-21 13:00:00 23.4 26 Oeste 39 Oeste 0 1012.5 -1.8 57
2019-11-21 12:00:00 22.5 20 Oeste 39 Oeste 0 1013.5 -0.6 64
2019-11-21 11:00:00 20.6 9 Sudeste 15 Sudeste 0 1014.3 0.7 86
2019-11-21 10:00:00 20.1 9 Sur 11 Sur 0 1014.3 1.2 85
2019-11-21 09:00:00 18.1 5 Oeste 9 Oeste 0.1 1014.1 1.3 92
2019-11-21 08:00:00 17 0 Calma 11 Oeste 0 1013.6 0.6 94
2019-11-21 07:00:00 -- -- -- -- -- -- -- -- --
2019-11-21 06:00:00 -- -- -- -- -- -- -- -- --
2019-11-21 05:00:00 -- -- -- -- -- -- -- -- --
2019-11-21 04:00:00 -- -- -- -- -- -- -- -- --
2019-11-21 03:00:00 -- -- -- -- -- -- -- -- --
2019-11-21 02:00:00 -- -- -- -- -- -- -- -- --
2019-11-21 01:00:00 -- -- -- -- -- -- -- -- --
2019-11-21 00:00:00 -- -- -- -- -- -- -- -- --
2019-11-20 23:00:00 -- -- -- -- -- -- -- -- --
2019-11-20 22:00:00 -- -- -- -- -- -- -- -- --
2019-11-20 21:00:00 -- -- -- -- -- -- -- -- --
2019-11-20 20:00:00 19.7 10 Sudoeste 22 Sudoeste 0 1014.1 1.1 81
2019-11-20 19:00:00 20 17 Oeste 37 Oeste 0 1013.7 72.5 81
2019-11-20 18:00:00 21.6 20 Oeste 32 Oeste 0 1013.4 0.4 71
2019-11-20 17:00:00 23 22 Oeste 39 Oeste 0 1013 -0.4 62
2019-11-20 16:00:00 23.6 22 Oeste 32 Oeste 0 1012.9 -1.2 57
2019-11-20 15:00:00 23.3 23 Oeste 35 Oeste 0 1013 -2 58
2019-11-20 14:00:00 24.1 22 Oeste 35 Oeste 0 1013.4 -2.3 55
2019-11-20 13:00:00 21.9 21 Sur 35 Sudoeste 0 1014.1 -1.7 75
2019-11-20 12:00:00 22.2 21 Sur 30 Sur 0 1015 -0.4 72
2019-11-20 11:00:00 21.5 18 Sur 26 Sur 0 1015.7 0.5 74
2019-11-20 10:00:00 20.2 13 Sur 18 Sur 0 1015.8 0.6 80
2019-11-20 09:00:00 18.8 9 Sudoeste 13 Sudoeste 0 1015.4 0.5 86
2019-11-20 08:00:00 16.3 0 Calma 21 Sudoeste 0 1015.2 0.2 90
2019-11-20 07:00:00 15.2 8 Norte 9 Norte 0 1015.2 0.2 92
2019-11-20 06:00:00 14 8 Norte 9 Norte 0 1014.9 -0.3 90
2019-11-20 05:00:00 14.1 5 Oeste 8 Oeste 0 1015 -0.3 90
2019-11-20 04:00:00 13.8 0 Calma 8 Norte 0 1015 -0.6 90
2019-11-20 03:00:00 13.9 3 Noroeste 8 Noroeste 0 1015.2 -0.6 89
2019-11-20 02:00:00 14.5 3 Nordeste 8 Norte 0 1015.3 -0.5 88
2019-11-20 01:00:00 14.6 6 Noroeste 9 Noroeste 0 1015.6 -0.8 86
2019-11-20 00:00:00 14.6 3 Norte 9 Noroeste 0 1015.8 -0.4 85
2019-11-19 23:00:00 14.9 4 Noroeste 9 Norte 0 1015.8 -0.1 85
2019-11-19 22:00:00 15.6 0 Calma 11 Norte 0 1016.4 0.7 82
2019-11-19 21:00:00 16.5 10 Norte 13 Norte 0 1016.2 0.8 80
2019-11-19 20:00:00 18.2 8 Norte 21 Noroeste 0 1015.9 0.6 75
2019-11-19 19:00:00 19 12 Norte 21 Norte 0 1015.7 0.8 72
2019-11-19 18:00:00 19.6 15 Norte 35 Norte 0 1015.4 0.1 69
2019-11-19 17:00:00 20.7 23 Norte 48 Noroeste 0 1015.3 -0.3 65
2019-11-19 16:00:00 21.3 31 Norte 42 Norte 0 1014.9 -1.2 62
2019-11-19 15:00:00 20.9 22 Norte 37 Norte 0 1015.3 -1.6 63
2019-11-19 14:00:00 22.3 23 Norte 48 Norte 0 1015.6 -1.9 57
2019-11-19 13:00:00 22.4 30 Norte 46 Norte 0 1016.1 -1.5 58
2019-11-19 12:00:00 21.2 28 Norte 46 Norte 0 1016.9 -0.1 66
2019-11-19 11:00:00 20.8 26 Norte 39 Norte 0 1017.5 0.7 76
2019-11-19 10:00:00 19.3 21 Norte 37 Norte 0.5 1017.6 1.1 91
2019-11-19 09:00:00 19.6 25 Norte 33 Norte 0 1017 0.8 85
2019-11-19 08:00:00 17.4 12 Norte 26 Nordeste 0 1016.8 0.7 90
2019-11-19 07:00:00 16.2 4 Norte 13 Norte 0 1016.5 0.1 89
2019-11-19 06:00:00 17.1 11 Norte 30 Noroeste 0 1016.2 -0.5 83
2019-11-19 05:00:00 18 19 Noroeste 26 Noroeste 0 1016.1 -1 84
2019-11-19 04:00:00 16.5 0 Calma 8 Sudoeste 0 1016.4 -1.4 90
2019-11-19 03:00:00 17.1 5 Noroeste 13 Noroeste 0 1016.7 -1.6 91
2019-11-19 02:00:00 15.6 0 Calma 9 Norte 0 1017.1 -1.3 87
2019-11-19 01:00:00 15.7 3 Norte 13 Noroeste 0 1017.8 -0.8 87
2019-11-19 00:00:00 15.4 3 Nordeste 8 Este 0 1018.3 -0.3 87
2019-11-18 23:00:00 16 3 Sudoeste 17 Norte 0 1018.4 0 83
2019-11-18 22:00:00 16.2 8 Norte 13 Norte 0 1018.6 0.4 82
2019-11-18 21:00:00 16.8 3 Norte 8 Nordeste 0 1018.6 0.6 78
2019-11-18 20:00:00 17.5 8 Noroeste 13 Norte 0 1018.4 0.6 75
2019-11-18 19:00:00 18.2 12 Norte 48 Norte 0 1018.2 0.6 72
2019-11-18 18:00:00 19.4 17 Norte 42 Noroeste 0 1018 0.3 71
2019-11-18 17:00:00 21.2 23 Norte 39 Noroeste 0 1017.8 -0.2 62
2019-11-18 16:00:00 21.8 23 Norte 41 Noroeste 0 1017.6 -1.2 59
2019-11-18 15:00:00 20.3 18 Este 28 Este 0 1017.7 -2 71
2019-11-18 14:00:00 19.9 18 Este 28 Este 0 1018 -2.1 71
2019-11-18 13:00:00 19.7 18 Este 30 Este 0 1018.8 -1.4 71
2019-11-18 12:00:00 20.2 18 Este 32 Este 0 1019.7 -0.3 69
2019-11-18 11:00:00 21.1 18 Este 30 Nordeste 0 1020.1 0.6 66
2019-11-18 10:00:00 20.5 13 Nordeste 26 Nordeste 0 1020.2 1.2 64
2019-11-18 09:00:00 18.4 13 Nordeste 22 Nordeste 0 1020 1.3 72
2019-11-18 08:00:00 14.9 11 Norte 22 Norte 0 1019.5 0.8 82
2019-11-18 07:00:00 14.1 17 Norte 22 Norte 0 1019 0.3 83
2019-11-18 06:00:00 14.2 17 Norte 24 Norte 0 1018.7 -0.1 83
2019-11-18 05:00:00 14.2 17 Norte 22 Norte 0 1018.7 -0.1 83
2019-11-18 04:00:00 14.3 17 Norte 22 Norte 0 1018.7 -0.3 81
2019-11-18 03:00:00 14.3 16 Norte 26 Norte 0 1018.8 -0.4 80
2019-11-18 02:00:00 14.4 17 Norte 24 Norte 0 1018.8 -0.5 79
2019-11-18 01:00:00 14.5 18 Norte 24 Norte 0 1019 -0.5 77
2019-11-18 00:00:00 14.8 18 Norte 26 Norte 0 1019.2 -0.2 76
2019-11-17 23:00:00 15.3 20 Norte 30 Norte 0 1019.3 0.1 73
2019-11-17 22:00:00 15.3 16 Norte 28 Norte 0 1019.5 0.8 70
2019-11-17 21:00:00 16 18 Norte 33 Norte 0 1019.4 1.1 67
2019-11-17 20:00:00 16.8 21 Norte 30 Norte 0 1019.2 1.3 64
2019-11-17 19:00:00 17.2 21 Norte 37 Nordeste 0 1018.7 1 62
2019-11-17 18:00:00 18 21 Nordeste 37 Nordeste 0 1018.3 0.5 59
2019-11-17 17:00:00 19.4 22 Nordeste 39 Nordeste 0 1017.9 -0.3 54
2019-11-17 16:00:00 20.3 25 Nordeste 42 Nordeste 0 1017.7 -1.2 50
2019-11-17 15:00:00 20.8 27 Nordeste 45 Nordeste 0 1017.8 -2.2 50
2019-11-17 14:00:00 21.1 29 Nordeste 46 Nordeste 0 1018.2 -2.3 49
2019-11-17 13:00:00 21.1 28 Nordeste 46 Nordeste 0 1018.9 -1.6 50
2019-11-17 12:00:00 21 31 Nordeste 46 Nordeste 0 1020 0.2 51
2019-11-17 11:00:00 20.6 26 Nordeste 45 Nordeste 0 1020.5 1 55
2019-11-17 10:00:00 19.5 27 Nordeste 41 Nordeste 0 1020.5 1.8 59
2019-11-17 09:00:00 18.4 27 Nordeste 41 Nordeste 0 1019.8 1.5 63
2019-11-17 08:00:00 17.7 20 Nordeste 32 Nordeste 0 1019.5 1.5 65
2019-11-17 07:00:00 16.3 15 Norte 28 Nordeste 0 1018.7 0.8 63
2019-11-17 06:00:00 16.8 14 Norte 37 Nordeste 0 1018.3 0.6 60
2019-11-17 05:00:00 17.2 22 Norte 37 Norte 0 1018 0.3 67
2019-11-17 04:00:00 17.3 18 Norte 30 Norte 0 1017.9 0.1 64
2019-11-17 03:00:00 17.4 21 Norte 39 Norte 0 1017.7 -0.4 66
2019-11-17 02:00:00 17.1 22 Norte 39 Norte 0 1017.7 -0.5 63
2019-11-17 01:00:00 17.1 20 Norte 37 Norte 0 1017.8 -0.3 62
2019-11-17 00:00:00 17.6 23 Norte 33 Norte 0 1018.1 0.3 66
2019-11-16 23:00:00 17.4 23 Norte 46 Nordeste 0 1018.2 0.7 66
2019-11-16 22:00:00 17.2 17 Norte 39 Norte 0 1018.1 1.1 62
2019-11-16 21:00:00 17.7 26 Norte 41 Norte 0 1017.8 1.3 61
2019-11-16 20:00:00 18 23 Norte 39 Norte 0 1017.5 1.5 65
2019-11-16 19:00:00 17.7 23 Norte 42 Nordeste 0 1017 1.2 66
2019-11-16 18:00:00 17.9 32 Norte 55 Norte 0 1016.5 0.7 66
2019-11-16 17:00:00 20.1 38 Norte 58 Noroeste 0 1016 0 59
2019-11-16 16:00:00 20.2 33 Nordeste 61 Norte 0 1015.8 -0.6 58
2019-11-16 15:00:00 21.2 36 Norte 58 Norte 0 1015.8 -1.4 60
2019-11-16 14:00:00 21.3 44 Norte 59 Norte 0 1016 -1.4 55
2019-11-16 13:00:00 21.5 40 Norte 63 Norte 0 1016.4 -0.8 54
2019-11-16 12:00:00 18.7 35 Norte 54 Norte 0 1017.2 0.3 77
2019-11-16 11:00:00 20.9 42 Norte 58 Norte 0 1017.4 1.2 55
2019-11-16 10:00:00 20 38 Norte 52 Norte 0 1017.2 1.4 53
2019-11-16 09:00:00 18.8 29 Norte 39 Norte 0 1016.9 1.8 64
2019-11-16 08:00:00 16.6 19 Norte 50 Norte 0 1016.2 1.3 71
2019-11-16 07:00:00 16.3 25 Norte 41 Norte 0 1015.8 0.9 68
2019-11-16 06:00:00 16.5 24 Norte 39 Norte 0 1015.1 0 72
2019-11-16 05:00:00 16.2 17 Norte 42 Norte 0 1014.9 -0.1 76
2019-11-16 04:00:00 16.3 18 Norte 39 Norte 0 1014.9 -0.3 71
2019-11-16 03:00:00 16.2 19 Norte 52 Noroeste 0 1015.1 -0.4 74
2019-11-16 02:00:00 17.1 23 Norte 45 Norte 0 1015 -0.2 68
2019-11-16 01:00:00 16.7 23 Norte 37 Norte 0 1015.2 -0.3 66
2019-11-16 00:00:00 17.1 22 Norte 35 Norte 0 1015.5 0.5 70
2019-11-15 23:00:00 17 14 Norte 48 Norte 0 1015.2 0.7 71
2019-11-15 22:00:00 17.5 43 Norte 59 Norte 0 1015.5 1.4 68
2019-11-15 21:00:00 18.1 26 Norte 37 Norte 0 1015 1.1 65
2019-11-15 20:00:00 17.6 28 Norte 41 Norte 0 1014.5 0.6 64
2019-11-15 19:00:00 18.4 30 Norte 41 Norte 0 1014.1 0.2 64
2019-11-15 18:00:00 18.8 27 Norte 46 Norte 0 1013.9 0 65
2019-11-15 17:00:00 20.1 36 Norte 58 Norte 0 1013.9 -0.2 59
2019-11-15 16:00:00 20.9 44 Norte 58 Norte 0 1013.9 -0.6 58
2019-11-15 15:00:00 19.7 35 Norte 61 Norte 0 1013.9 -1.3 62
2019-11-15 14:00:00 21.6 42 Norte 55 Norte 0 1014.1 -1.8 50
2019-11-15 13:00:00 22.1 41 Norte 55 Norte 0 1014.5 -0.8 48
2019-11-15 12:00:00 21.8 36 Norte 48 Norte 0 1015.2 -0.2 48
2019-11-15 11:00:00 20.5 39 Norte 54 Norte 0 1015.9 1.5 61
2019-11-15 10:00:00 19.6 33 Norte 46 Norte 0 1015.3 1.4 61
2019-11-15 09:00:00 16.8 37 Norte 54 Norte 0 1015.4 2 86
2019-11-15 08:00:00 18.3 26 Norte 39 Norte 0 1014.4 1.3 78
2019-11-15 07:00:00 18 24 Norte 35 Norte 0 1013.9 0.5 78
2019-11-15 06:00:00 18.1 24 Norte 41 Norte 0 1013.4 -0.5 76
2019-11-15 05:00:00 18.4 28 Norte 42 Norte 0 1013.1 -1.5 77
2019-11-15 04:00:00 18 16 Norte 28 Norte 0 1013.4 -1.8 73
2019-11-15 03:00:00 18.5 15 Norte 26 Norte 0 1013.9 -1.6 74
2019-11-15 02:00:00 18.4 15 Norte 21 Norte 0 1014.6 -0.8 66
2019-11-15 01:00:00 19.2 17 Norte 35 Norte 0 1015.2 0.1 62
2019-11-15 00:00:00 19.6 24 Norte 37 Norte 0 1015.5 0.6 65